createdAt,value
2022-07-26T00:01:52.914Z,21.50
2022-07-26T00:06:56.290Z,21.50
2022-07-26T00:12:00.933Z,21.40
2022-07-26T00:17:05.679Z,21.40
2022-07-26T00:22:26.548Z,21.30
2022-07-26T00:27:31.164Z,21.30
2022-07-26T00:32:34.466Z,21.30
2022-07-26T00:37:38.118Z,21.30
2022-07-26T00:42:42.874Z,21.30
2022-07-26T00:47:46.888Z,21.30
2022-07-26T00:52:51.630Z,21.30
2022-07-26T00:57:56.296Z,21.30
2022-07-26T01:03:00.653Z,21.20
2022-07-26T01:08:04.177Z,21.10
2022-07-26T01:13:09.516Z,21.10
2022-07-26T01:18:12.662Z,21.00
2022-07-26T01:23:17.612Z,21.10
2022-07-26T01:28:20.740Z,21.10
2022-07-26T01:33:28.041Z,21.20
2022-07-26T01:38:32.675Z,21.30
2022-07-26T01:43:35.958Z,21.30
2022-07-26T01:48:39.341Z,21.30
2022-07-26T01:53:45.743Z,21.20
2022-07-26T01:58:49.090Z,21.10
2022-07-26T02:03:52.241Z,21.10
2022-07-26T02:08:56.739Z,20.90
2022-07-26T02:13:59.889Z,20.70
2022-07-26T02:19:03.101Z,20.70
2022-07-26T02:24:08.746Z,20.50
2022-07-26T02:29:12.311Z,20.40
2022-07-26T02:34:15.601Z,20.30
2022-07-26T02:39:20.688Z,20.20
2022-07-26T02:44:25.222Z,20.10
2022-07-26T02:49:28.540Z,20.10
2022-07-26T02:54:33.199Z,20.00
2022-07-26T02:59:36.645Z,20.00
2022-07-26T03:04:39.874Z,20.00
2022-07-26T03:09:44.549Z,20.00
2022-07-26T03:14:47.741Z,19.90
2022-07-26T03:19:50.924Z,19.90
2022-07-26T03:24:55.507Z,19.70
2022-07-26T03:29:58.653Z,19.60
2022-07-26T03:35:01.906Z,19.60
2022-07-26T03:40:08.897Z,19.60
2022-07-26T03:45:12.655Z,19.50
2022-07-26T03:50:15.832Z,19.50
2022-07-26T03:55:38.259Z,19.40
2022-07-26T04:00:41.408Z,19.30
2022-07-26T04:05:48.559Z,19.30
2022-07-26T04:10:53.708Z,19.30
2022-07-26T04:15:56.805Z,19.40
2022-07-26T04:21:00.337Z,19.40
2022-07-26T04:26:05.289Z,19.40
2022-07-26T04:31:09.022Z,19.40
2022-07-26T04:36:12.254Z,19.50
2022-07-26T04:41:17.066Z,19.50
2022-07-26T04:46:20.505Z,19.60
2022-07-26T04:51:23.821Z,19.60
2022-07-26T04:56:28.894Z,19.70
2022-07-26T05:01:32.172Z,19.60
2022-07-26T05:06:35.360Z,19.70
2022-07-26T05:11:40.091Z,19.60
2022-07-26T05:16:44.322Z,19.70
2022-07-26T05:21:48.277Z,19.70
2022-07-26T05:26:56.827Z,19.90
2022-07-26T05:32:01.780Z,20.30
2022-07-26T05:37:05.219Z,20.90
2022-07-26T05:42:09.895Z,21.20
2022-07-26T05:47:13.108Z,21.60
2022-07-26T05:52:16.311Z,22.20
2022-07-26T05:57:21.079Z,22.10
2022-07-26T06:02:24.337Z,22.60
2022-07-26T06:07:27.588Z,22.80
2022-07-26T06:12:32.157Z,22.80
2022-07-26T06:17:35.480Z,22.70
2022-07-26T06:22:38.762Z,22.60
2022-07-26T06:27:43.413Z,22.40
2022-07-26T06:32:46.753Z,22.60
2022-07-26T06:37:49.860Z,23.00
2022-07-26T06:42:54.552Z,22.80
2022-07-26T06:47:57.981Z,22.90
2022-07-26T06:53:01.250Z,23.10
2022-07-26T06:58:05.695Z,24.30
2022-07-26T07:03:08.877Z,25.30
2022-07-26T07:08:12.296Z,25.50
2022-07-26T07:13:17.676Z,25.70
2022-07-26T07:18:20.901Z,25.60
2022-07-26T07:23:24.151Z,26.10
2022-07-26T07:28:28.694Z,27.00
2022-07-26T07:33:36.475Z,27.80
2022-07-26T07:38:47.084Z,28.60
2022-07-26T07:43:51.801Z,27.70
2022-07-26T07:48:55.293Z,27.50
2022-07-26T07:54:01.213Z,27.30
2022-07-26T07:59:07.333Z,27.70
2022-07-26T08:04:10.811Z,27.60
2022-07-26T08:09:14.090Z,27.80
2022-07-26T08:14:18.841Z,27.90
2022-07-26T08:19:22.680Z,28.40
2022-07-26T08:24:26.001Z,29.20
2022-07-26T08:29:30.510Z,29.50
2022-07-26T08:34:33.625Z,29.50
2022-07-26T08:39:36.950Z,29.80
2022-07-26T08:44:44.258Z,30.70
2022-07-26T08:49:47.692Z,30.60
2022-07-26T08:54:53.211Z,29.60
2022-07-26T09:00:22.579Z,29.30
2022-07-26T09:05:29.720Z,29.20
2022-07-26T09:10:39.145Z,29.60
2022-07-26T09:15:44.113Z,30.30
2022-07-26T09:20:49.080Z,30.20
2022-07-26T09:25:52.285Z,30.80
2022-07-26T09:30:58.899Z,31.20
2022-07-26T09:36:03.888Z,30.70
2022-07-26T09:41:19.345Z,30.80
2022-07-26T09:46:26.154Z,31.40
2022-07-26T09:51:38.059Z,31.90
2022-07-26T09:56:46.937Z,31.10
2022-07-26T10:01:53.449Z,31.50
2022-07-26T10:06:58.185Z,32.70
2022-07-26T10:12:03.285Z,31.90
2022-07-26T10:17:45.915Z,32.70
2022-07-26T10:22:51.242Z,32.50
2022-07-26T10:27:56.567Z,32.80
2022-07-26T10:33:01.031Z,33.20
2022-07-26T10:38:07.415Z,33.30
2022-07-26T10:43:39.150Z,32.30
2022-07-26T10:48:36.584Z,32.70
2022-07-26T10:53:41.447Z,32.30
2022-07-26T10:58:44.974Z,32.10
2022-07-26T11:03:48.216Z,31.60
2022-07-26T11:08:52.956Z,30.50
2022-07-26T11:14:06.241Z,29.40
2022-07-26T11:19:19.939Z,28.30
2022-07-26T11:24:26.273Z,27.80
2022-07-26T11:29:38.891Z,27.80
2022-07-26T11:34:45.309Z,28.10
2022-07-26T11:39:49.875Z,29.20
2022-07-26T11:44:54.033Z,30.90
2022-07-26T11:50:21.649Z,31.30
2022-07-26T11:55:31.368Z,31.10
2022-07-26T12:00:34.899Z,30.30
2022-07-26T12:05:38.204Z,29.40
2022-07-26T12:10:42.895Z,28.90
2022-07-26T12:15:50.787Z,28.40
2022-07-26T12:21:07.151Z,27.90
2022-07-26T12:26:26.768Z,27.60
2022-07-26T12:31:31.654Z,27.30
2022-07-26T12:36:35.732Z,26.90
2022-07-26T12:41:41.421Z,26.40
2022-07-26T12:46:46.025Z,26.60
2022-07-26T12:51:49.241Z,26.40
2022-07-26T12:56:53.774Z,26.20
2022-07-26T13:01:57.226Z,25.90
2022-07-26T13:07:00.640Z,25.80
2022-07-26T13:12:07.330Z,26.00
2022-07-26T13:17:11.667Z,26.00
2022-07-26T13:22:14.982Z,26.40
2022-07-26T13:27:20.014Z,27.50
2022-07-26T13:32:23.210Z,28.60
2022-07-26T13:37:26.434Z,27.30
2022-07-26T13:42:31.122Z,26.00
2022-07-26T13:47:34.425Z,25.10
2022-07-26T13:52:37.790Z,24.50
2022-07-26T13:57:53.064Z,24.00
2022-07-26T14:03:01.555Z,23.50
2022-07-26T14:08:05.234Z,23.50
2022-07-26T14:13:10.262Z,23.40
2022-07-26T14:18:13.453Z,23.50
2022-07-26T14:23:16.741Z,23.80
2022-07-26T14:28:21.435Z,24.20
2022-07-26T14:33:24.659Z,24.30
2022-07-26T14:38:30.157Z,24.40
2022-07-26T14:43:35.218Z,25.00
2022-07-26T14:48:54.126Z,25.10
2022-07-26T14:53:58.073Z,25.30
2022-07-26T14:59:02.618Z,25.50
2022-07-26T15:04:06.374Z,25.60
2022-07-26T15:09:09.521Z,25.60
2022-07-26T15:14:14.458Z,25.70
2022-07-26T15:19:22.171Z,25.40
2022-07-26T15:24:28.845Z,25.10
2022-07-26T15:29:33.391Z,25.00
2022-07-26T15:34:36.558Z,25.00
2022-07-26T15:39:39.819Z,25.10
2022-07-26T15:44:44.454Z,25.20
2022-07-26T15:49:47.769Z,25.20
2022-07-26T15:54:52.739Z,24.90
2022-07-26T15:59:57.330Z,24.90
2022-07-26T16:05:00.445Z,24.80
2022-07-26T16:10:03.602Z,24.80
2022-07-26T16:15:10.424Z,24.70
2022-07-26T16:20:13.647Z,24.80
2022-07-26T16:25:16.854Z,25.00
2022-07-26T16:30:22.086Z,24.80
2022-07-26T16:35:25.234Z,24.80
2022-07-26T16:40:28.584Z,24.60
2022-07-26T16:45:33.100Z,24.30
2022-07-26T16:50:36.298Z,24.10
2022-07-26T16:55:40.104Z,23.90
2022-07-26T17:00:44.860Z,23.70
2022-07-26T17:05:50.393Z,23.60
2022-07-26T17:10:53.671Z,23.50
2022-07-26T17:15:58.620Z,23.60
2022-07-26T17:21:02.704Z,23.60
2022-07-26T17:26:06.184Z,23.50
2022-07-26T17:31:10.806Z,23.60
2022-07-26T17:36:21.931Z,23.50
2022-07-26T17:41:32.485Z,23.50
2022-07-26T17:46:37.726Z,23.30
2022-07-26T17:51:41.505Z,23.10
2022-07-26T17:56:44.601Z,23.00
2022-07-26T18:01:53.637Z,23.10
2022-07-26T18:06:57.463Z,23.10
2022-07-26T18:12:00.656Z,23.00
2022-07-26T18:17:05.268Z,23.00
2022-07-26T18:22:08.450Z,22.90
2022-07-26T18:27:11.707Z,22.70
2022-07-26T18:32:16.325Z,22.50
2022-07-26T18:37:19.705Z,22.30
2022-07-26T18:42:22.850Z,22.20
2022-07-26T18:47:27.318Z,22.20
2022-07-26T18:52:31.936Z,22.00
2022-07-26T18:57:35.924Z,21.80
2022-07-26T19:02:40.438Z,21.70
2022-07-26T19:07:44.327Z,21.50
2022-07-26T19:12:48.497Z,21.40
2022-07-26T19:17:53.057Z,21.40
2022-07-26T19:22:56.196Z,21.30
2022-07-26T19:27:59.334Z,21.20
2022-07-26T19:33:04.308Z,21.00
2022-07-26T19:38:07.455Z,20.80
2022-07-26T19:43:10.602Z,20.80
2022-07-26T19:48:15.112Z,20.80
2022-07-26T19:53:18.730Z,20.70
2022-07-26T19:58:21.887Z,20.70
2022-07-26T20:03:31.530Z,20.70
2022-07-26T20:08:34.678Z,20.70
2022-07-26T20:13:37.926Z,20.70
2022-07-26T20:18:42.456Z,20.80
2022-07-26T20:23:45.695Z,20.80
2022-07-26T20:28:49.088Z,20.70
2022-07-26T20:33:54.836Z,20.60
2022-07-26T20:38:59.814Z,20.50
2022-07-26T20:44:03.036Z,20.40
2022-07-26T20:49:09.960Z,20.40
2022-07-26T20:54:13.539Z,20.30
2022-07-26T20:59:16.895Z,20.40
2022-07-26T21:04:21.418Z,20.30
2022-07-26T21:09:27.057Z,20.20
2022-07-26T21:14:30.393Z,20.20
2022-07-26T21:19:36.625Z,20.20
2022-07-26T21:24:39.807Z,20.20
2022-07-26T21:29:45.212Z,20.10
2022-07-26T21:34:49.893Z,20.10
2022-07-26T21:39:53.259Z,20.10
2022-07-26T21:44:56.418Z,20.00
2022-07-26T21:50:01.494Z,20.00
2022-07-26T21:55:05.133Z,20.00
2022-07-26T22:00:09.722Z,19.90
2022-07-26T22:05:31.475Z,20.00
2022-07-26T22:10:35.362Z,19.90
2022-07-26T22:15:48.237Z,19.90
2022-07-26T22:20:52.921Z,19.90
2022-07-26T22:25:56.038Z,19.90
2022-07-26T22:30:59.997Z,19.90
2022-07-26T22:36:05.087Z,19.80
2022-07-26T22:41:08.357Z,19.70
2022-07-26T22:46:11.837Z,19.70
2022-07-26T22:51:16.540Z,19.70
2022-07-26T22:56:20.170Z,19.70
2022-07-26T23:01:23.427Z,19.70
2022-07-26T23:06:31.989Z,19.60
2022-07-26T23:11:35.540Z,19.50
2022-07-26T23:16:38.805Z,19.40
2022-07-26T23:21:43.483Z,19.30
2022-07-26T23:26:46.778Z,19.30
2022-07-26T23:31:50.111Z,19.30
2022-07-26T23:36:54.861Z,19.20
2022-07-26T23:41:58.012Z,19.10
2022-07-26T23:47:01.374Z,19.10
2022-07-26T23:52:06.465Z,19.10
2022-07-26T23:57:09.811Z,19.10
